Adger, AL

3:36 PM CST on December 17, 2014 (GMT -0600)
Tuscaloosa Municipal | Change Station
CLOSE
Current Station
Airport
Location: Tuscaloosa,
Elevation: 171 ft
Nearby Weather Stations

Elev 171 ft 33.22 °N, 87.61 °W | Updated 43 minutes ago

Partly Cloudy
Partly Cloudy
51 °F
Feels Like 51 °F
N
9
Wind Variable Wind from NNE

Today
High -- | Low -- °F
--% Chance of Precip.
Yesterday
High -- | Low -- °F
Precip. -- in
6:46 AM 4:43 PM
Waning Crescent, 19% visible
Pressure 30.22 in
Visibility 10.0 miles
Clouds Clear
Dew Point 37 °F
Humidity 59%
Rainfall 0.00 in
Snow Depth Not available.
UV 1 out of 12
Pollen 1.50 out of 12
Air Quality Not available.
Flu Activity Not available.
METAR KTCL 172053Z 03008KT 10SM CLR 11/03 A3022 RMK AO2 SLP232 T01060028 56019

More Conditions Fewer Conditions

Pressure 30.22 in
Visibility 10.0 miles
Clouds Clear
Dew Point 37 °F
Humidity 59%
Rainfall 0.00 in
Snow Depth Not available.
UV 1 out of 12
Pollen 1.50 out of 12
Air Quality Not available.
Flu Activity Not available.
METAR KTCL 172053Z 03008KT 10SM CLR 11/03 A3022 RMK AO2 SLP232 T01060028 56019

More Conditions Fewer Conditions

10-Day Weather Forecast

Almanac

Astronomy

Dec. 17, 2014 Rise Set
Actual Time
Civil Twilight
Nautical Twilight
Astronomical Twilight
Moon
Length of Visible Light
Length of Day
Tomorrow will be .
, % of the Moon is Illuminated

Today's Extremes

State Highs State Lows

Community

WunderPhotos

Upload Photos

1,778,807 photos uploaded!

WunderBlogs® & News

Nearby

Air Quality

  Air Quality AQ Index Pollutant
Not available.

Snow Depth

Station Depth Elevation

Earthquake Activity

City Distance Mag. Time & Date
Minimum magnitude displayed is 2.5.

Coastal Water Temperatures

Place Temperature

Nearby Weather Stations